sensor_id;sensor_type;location;lat;lon;timestamp;P1;durP1;ratioP1;P2;durP2;ratioP2
70253;SDS011;57649;42.968;1.608;2022-08-11T00:01:16;6.23;;;4.07;;
70253;SDS011;57649;42.968;1.608;2022-08-11T00:03:46;7.13;;;3.95;;
70253;SDS011;57649;42.968;1.608;2022-08-11T00:06:15;6.05;;;4.15;;
70253;SDS011;57649;42.968;1.608;2022-08-11T00:08:48;5.15;;;3.70;;
70253;SDS011;57649;42.968;1.608;2022-08-11T00:11:15;5.20;;;3.88;;
70253;SDS011;57649;42.968;1.608;2022-08-11T00:13:43;4.70;;;4.25;;
70253;SDS011;57649;42.968;1.608;2022-08-11T00:16:14;5.15;;;4.03;;
70253;SDS011;57649;42.968;1.608;2022-08-11T00:18:42;4.55;;;3.95;;
70253;SDS011;57649;42.968;1.608;2022-08-11T00:21:10;4.20;;;3.80;;
70253;SDS011;57649;42.968;1.608;2022-08-11T00:23:44;4.95;;;4.00;;
70253;SDS011;57649;42.968;1.608;2022-08-11T00:26:12;6.57;;;3.75;;
70253;SDS011;57649;42.968;1.608;2022-08-11T00:28:39;5.63;;;4.10;;
70253;SDS011;57649;42.968;1.608;2022-08-11T00:34:15;11.70;;;4.00;;
70253;SDS011;57649;42.968;1.608;2022-08-11T00:36:59;6.03;;;4.30;;
70253;SDS011;57649;42.968;1.608;2022-08-11T00:39:25;5.95;;;4.00;;
70253;SDS011;57649;42.968;1.608;2022-08-11T00:58:43;5.88;;;3.92;;
70253;SDS011;57649;42.968;1.608;2022-08-11T01:04:15;4.40;;;3.88;;
70253;SDS011;57649;42.968;1.608;2022-08-11T01:12:14;7.18;;;3.67;;
70253;SDS011;57649;42.968;1.608;2022-08-11T01:26:24;4.85;;;3.88;;
70253;SDS011;57649;42.968;1.608;2022-08-11T01:46:31;5.70;;;3.88;;
70253;SDS011;57649;42.968;1.608;2022-08-11T01:51:32;4.30;;;3.22;;
70253;SDS011;57649;42.968;1.608;2022-08-11T01:54:23;7.50;;;3.70;;
70253;SDS011;57649;42.968;1.608;2022-08-11T02:00:06;8.32;;;3.55;;
70253;SDS011;57649;42.968;1.608;2022-08-11T02:08:07;6.03;;;3.42;;
70253;SDS011;57649;42.968;1.608;2022-08-11T02:10:40;6.90;;;3.75;;
70253;SDS011;57649;42.968;1.608;2022-08-11T02:16:02;4.20;;;3.70;;
70253;SDS011;57649;42.968;1.608;2022-08-11T02:18:35;4.53;;;3.38;;
70253;SDS011;57649;42.968;1.608;2022-08-11T02:21:26;8.87;;;3.80;;
70253;SDS011;57649;42.968;1.608;2022-08-11T02:24:29;4.68;;;3.60;;
70253;SDS011;57649;42.968;1.608;2022-08-11T02:27:13;5.78;;;3.95;;
70253;SDS011;57649;42.968;1.608;2022-08-11T02:32:17;5.50;;;3.53;;
70253;SDS011;57649;42.968;1.608;2022-08-11T02:35:18;4.38;;;3.60;;
70253;SDS011;57649;42.968;1.608;2022-08-11T03:07:30;4.78;;;3.45;;
70253;SDS011;57649;42.968;1.608;2022-08-11T03:13:03;5.80;;;3.75;;
70253;SDS011;57649;42.968;1.608;2022-08-11T03:28:20;5.18;;;3.55;;
70253;SDS011;57649;42.968;1.608;2022-08-11T03:36:04;4.05;;;3.45;;
70253;SDS011;57649;42.968;1.608;2022-08-11T03:38:35;5.15;;;3.80;;
70253;SDS011;57649;42.968;1.608;2022-08-11T03:41:25;5.35;;;3.97;;
70253;SDS011;57649;42.968;1.608;2022-08-11T03:44:27;7.20;;;3.95;;
70253;SDS011;57649;42.968;1.608;2022-08-11T03:47:21;4.53;;;3.63;;
70253;SDS011;57649;42.968;1.608;2022-08-11T03:52:40;7.13;;;3.70;;
70253;SDS011;57649;42.968;1.608;2022-08-11T04:01:36;5.32;;;3.47;;
70253;SDS011;57649;42.968;1.608;2022-08-11T04:15:26;4.80;;;3.80;;
70253;SDS011;57649;42.968;1.608;2022-08-11T04:45:04;4.68;;;4.03;;
70253;SDS011;57649;42.968;1.608;2022-08-11T04:57:08;5.22;;;4.38;;
70253;SDS011;57649;42.968;1.608;2022-08-11T05:00:22;5.97;;;4.15;;
70253;SDS011;57649;42.968;1.608;2022-08-11T05:06:07;11.57;;;4.57;;
70253;SDS011;57649;42.968;1.608;2022-08-11T05:11:40;7.68;;;4.70;;
70253;SDS011;57649;42.968;1.608;2022-08-11T05:17:11;5.25;;;4.30;;
70253;SDS011;57649;42.968;1.608;2022-08-11T05:20:10;7.75;;;4.65;;
70253;SDS011;57649;42.968;1.608;2022-08-11T05:22:55;7.97;;;4.28;;
70253;SDS011;57649;42.968;1.608;2022-08-11T05:25:47;5.05;;;4.25;;
70253;SDS011;57649;42.968;1.608;2022-08-11T05:31:25;5.53;;;4.10;;
70253;SDS011;57649;42.968;1.608;2022-08-11T05:34:40;5.65;;;3.80;;
70253;SDS011;57649;42.968;1.608;2022-08-11T05:39:49;8.95;;;5.03;;
70253;SDS011;57649;42.968;1.608;2022-08-11T05:42:38;13.65;;;9.23;;
70253;SDS011;57649;42.968;1.608;2022-08-11T05:45:31;6.50;;;5.20;;
70253;SDS011;57649;42.968;1.608;2022-08-11T05:48:17;12.57;;;4.40;;
70253;SDS011;57649;42.968;1.608;2022-08-11T05:51:01;5.53;;;4.50;;
70253;SDS011;57649;42.968;1.608;2022-08-11T05:53:48;7.43;;;4.65;;
70253;SDS011;57649;42.968;1.608;2022-08-11T05:56:41;6.30;;;4.47;;
70253;SDS011;57649;42.968;1.608;2022-08-11T05:59:21;11.13;;;4.88;;
70253;SDS011;57649;42.968;1.608;2022-08-11T06:01:48;9.65;;;3.95;;
70253;SDS011;57649;42.968;1.608;2022-08-11T06:04:15;7.75;;;4.30;;
70253;SDS011;57649;42.968;1.608;2022-08-11T06:06:46;8.30;;;4.43;;
70253;SDS011;57649;42.968;1.608;2022-08-11T06:09:20;7.97;;;4.30;;
70253;SDS011;57649;42.968;1.608;2022-08-11T06:11:51;7.45;;;4.70;;
70253;SDS011;57649;42.968;1.608;2022-08-11T06:14:18;11.32;;;4.30;;
70253;SDS011;57649;42.968;1.608;2022-08-11T06:16:47;6.97;;;4.33;;
70253;SDS011;57649;42.968;1.608;2022-08-11T06:19:13;10.27;;;4.95;;
70253;SDS011;57649;42.968;1.608;2022-08-11T06:21:43;6.45;;;4.28;;
70253;SDS011;57649;42.968;1.608;2022-08-11T06:24:11;6.40;;;3.72;;
70253;SDS011;57649;42.968;1.608;2022-08-11T06:26:45;6.53;;;4.00;;
70253;SDS011;57649;42.968;1.608;2022-08-11T06:29:12;11.40;;;5.20;;
70253;SDS011;57649;42.968;1.608;2022-08-11T06:31:42;7.70;;;4.57;;
70253;SDS011;57649;42.968;1.608;2022-08-11T06:37:15;8.27;;;4.07;;
70253;SDS011;57649;42.968;1.608;2022-08-11T06:39:51;6.05;;;4.18;;
70253;SDS011;57649;42.968;1.608;2022-08-11T06:42:42;9.43;;;4.43;;
70253;SDS011;57649;42.968;1.608;2022-08-11T06:45:22;5.93;;;3.78;;
70253;SDS011;57649;42.968;1.608;2022-08-11T06:47:52;5.53;;;4.10;;
70253;SDS011;57649;42.968;1.608;2022-08-11T06:50:19;6.28;;;3.95;;
70253;SDS011;57649;42.968;1.608;2022-08-11T06:53:06;7.05;;;4.22;;
70253;SDS011;57649;42.968;1.608;2022-08-11T06:55:34;6.57;;;4.10;;
70253;SDS011;57649;42.968;1.608;2022-08-11T06:58:21;8.38;;;4.05;;
70253;SDS011;57649;42.968;1.608;2022-08-11T07:01:10;9.13;;;4.60;;
70253;SDS011;57649;42.968;1.608;2022-08-11T07:03:55;6.07;;;4.85;;
70253;SDS011;57649;42.968;1.608;2022-08-11T07:06:56;8.45;;;3.90;;
70253;SDS011;57649;42.968;1.608;2022-08-11T07:12:52;11.10;;;4.75;;
70253;SDS011;57649;42.968;1.608;2022-08-11T07:15:41;8.25;;;3.85;;
70253;SDS011;57649;42.968;1.608;2022-08-11T07:18:09;4.25;;;3.50;;
70253;SDS011;57649;42.968;1.608;2022-08-11T07:21:05;13.98;;;4.13;;
70253;SDS011;57649;42.968;1.608;2022-08-11T07:23:56;5.82;;;4.00;;
70253;SDS011;57649;42.968;1.608;2022-08-11T07:26:42;6.95;;;4.05;;
70253;SDS011;57649;42.968;1.608;2022-08-11T07:29:31;6.18;;;3.70;;
70253;SDS011;57649;42.968;1.608;2022-08-11T07:31:57;8.07;;;4.15;;
70253;SDS011;57649;42.968;1.608;2022-08-11T07:34:33;5.45;;;4.10;;
70253;SDS011;57649;42.968;1.608;2022-08-11T07:37:08;5.38;;;4.03;;
70253;SDS011;57649;42.968;1.608;2022-08-11T07:39:40;5.78;;;3.90;;
70253;SDS011;57649;42.968;1.608;2022-08-11T07:42:09;5.63;;;4.03;;
70253;SDS011;57649;42.968;1.608;2022-08-11T07:44:38;6.25;;;3.67;;
70253;SDS011;57649;42.968;1.608;2022-08-11T07:47:23;6.53;;;3.60;;
70253;SDS011;57649;42.968;1.608;2022-08-11T07:50:09;9.43;;;4.03;;
70253;SDS011;57649;42.968;1.608;2022-08-11T07:52:55;5.43;;;3.78;;
70253;SDS011;57649;42.968;1.608;2022-08-11T07:55:22;10.75;;;5.30;;
70253;SDS011;57649;42.968;1.608;2022-08-11T07:57:56;7.05;;;5.22;;
70253;SDS011;57649;42.968;1.608;2022-08-11T08:00:44;5.05;;;4.20;;
70253;SDS011;57649;42.968;1.608;2022-08-11T08:03:30;6.23;;;4.27;;
70253;SDS011;57649;42.968;1.608;2022-08-11T08:06:16;6.38;;;3.75;;
70253;SDS011;57649;42.968;1.608;2022-08-11T08:09:00;5.85;;;3.67;;
70253;SDS011;57649;42.968;1.608;2022-08-11T08:11:45;5.53;;;3.70;;
70253;SDS011;57649;42.968;1.608;2022-08-11T08:14:30;6.55;;;3.30;;
70253;SDS011;57649;42.968;1.608;2022-08-11T08:17:15;7.90;;;3.90;;
70253;SDS011;57649;42.968;1.608;2022-08-11T08:19:59;4.10;;;3.42;;
70253;SDS011;57649;42.968;1.608;2022-08-11T08:22:26;5.60;;;3.13;;
70253;SDS011;57649;42.968;1.608;2022-08-11T08:24:52;9.85;;;3.70;;
70253;SDS011;57649;42.968;1.608;2022-08-11T08:27:20;9.25;;;4.10;;
70253;SDS011;57649;42.968;1.608;2022-08-11T08:29:47;8.90;;;3.50;;
70253;SDS011;57649;42.968;1.608;2022-08-11T08:32:31;5.65;;;2.83;;
70253;SDS011;57649;42.968;1.608;2022-08-11T08:34:59;3.20;;;2.90;;
70253;SDS011;57649;42.968;1.608;2022-08-11T08:37:26;11.00;;;5.07;;
70253;SDS011;57649;42.968;1.608;2022-08-11T08:39:52;5.43;;;3.47;;
70253;SDS011;57649;42.968;1.608;2022-08-11T08:42:20;7.97;;;3.30;;
70253;SDS011;57649;42.968;1.608;2022-08-11T08:44:57;8.13;;;3.40;;
70253;SDS011;57649;42.968;1.608;2022-08-11T08:47:35;5.63;;;3.30;;
70253;SDS011;57649;42.968;1.608;2022-08-11T08:50:06;4.40;;;3.30;;
70253;SDS011;57649;42.968;1.608;2022-08-11T08:52:38;4.88;;;3.33;;
70253;SDS011;57649;42.968;1.608;2022-08-11T08:55:08;8.23;;;3.20;;
70253;SDS011;57649;42.968;1.608;2022-08-11T08:57:36;7.07;;;3.67;;
70253;SDS011;57649;42.968;1.608;2022-08-11T09:00:07;6.57;;;3.65;;
70253;SDS011;57649;42.968;1.608;2022-08-11T09:02:33;4.13;;;3.63;;
70253;SDS011;57649;42.968;1.608;2022-08-11T09:05:01;5.88;;;3.30;;
70253;SDS011;57649;42.968;1.608;2022-08-11T09:07:28;3.83;;;3.22;;
70253;SDS011;57649;42.968;1.608;2022-08-11T09:09:56;5.38;;;3.50;;
70253;SDS011;57649;42.968;1.608;2022-08-11T09:12:26;9.35;;;4.30;;
70253;SDS011;57649;42.968;1.608;2022-08-11T09:14:53;7.10;;;3.95;;
70253;SDS011;57649;42.968;1.608;2022-08-11T09:17:26;9.32;;;4.13;;
70253;SDS011;57649;42.968;1.608;2022-08-11T09:20:09;8.35;;;4.13;;
70253;SDS011;57649;42.968;1.608;2022-08-11T09:22:37;7.05;;;3.78;;
70253;SDS011;57649;42.968;1.608;2022-08-11T09:25:25;7.32;;;3.40;;
70253;SDS011;57649;42.968;1.608;2022-08-11T09:28:12;5.18;;;3.70;;
70253;SDS011;57649;42.968;1.608;2022-08-11T09:30:43;3.90;;;3.50;;
70253;SDS011;57649;42.968;1.608;2022-08-11T09:33:13;5.00;;;3.25;;
70253;SDS011;57649;42.968;1.608;2022-08-11T09:35:40;9.90;;;3.42;;
70253;SDS011;57649;42.968;1.608;2022-08-11T09:38:11;5.68;;;3.53;;
70253;SDS011;57649;42.968;1.608;2022-08-11T09:40:57;3.95;;;3.33;;
70253;SDS011;57649;42.968;1.608;2022-08-11T09:43:26;6.45;;;3.65;;
70253;SDS011;57649;42.968;1.608;2022-08-11T09:46:11;9.77;;;3.17;;
70253;SDS011;57649;42.968;1.608;2022-08-11T09:48:39;7.75;;;3.28;;
70253;SDS011;57649;42.968;1.608;2022-08-11T09:51:06;4.60;;;2.80;;
70253;SDS011;57649;42.968;1.608;2022-08-11T09:53:34;6.55;;;3.13;;
70253;SDS011;57649;42.968;1.608;2022-08-11T09:56:15;6.25;;;2.75;;
70253;SDS011;57649;42.968;1.608;2022-08-11T09:59:02;6.55;;;3.08;;
70253;SDS011;57649;42.968;1.608;2022-08-11T10:01:38;4.05;;;2.85;;
70253;SDS011;57649;42.968;1.608;2022-08-11T10:04:10;3.95;;;3.10;;
70253;SDS011;57649;42.968;1.608;2022-08-11T10:06:41;5.28;;;3.17;;
70253;SDS011;57649;42.968;1.608;2022-08-11T10:09:49;5.63;;;3.10;;
70253;SDS011;57649;42.968;1.608;2022-08-11T10:12:20;7.40;;;2.90;;
70253;SDS011;57649;42.968;1.608;2022-08-11T10:14:54;6.40;;;3.00;;
70253;SDS011;57649;42.968;1.608;2022-08-11T10:17:45;4.57;;;2.58;;
70253;SDS011;57649;42.968;1.608;2022-08-11T10:20:31;3.92;;;3.28;;
70253;SDS011;57649;42.968;1.608;2022-08-11T10:23:01;3.72;;;2.47;;
70253;SDS011;57649;42.968;1.608;2022-08-11T10:25:46;4.43;;;2.63;;
70253;SDS011;57649;42.968;1.608;2022-08-11T10:28:33;5.75;;;2.60;;
70253;SDS011;57649;42.968;1.608;2022-08-11T10:31:00;6.20;;;2.88;;
70253;SDS011;57649;42.968;1.608;2022-08-11T10:33:46;4.60;;;2.90;;
70253;SDS011;57649;42.968;1.608;2022-08-11T10:36:25;4.40;;;2.77;;
70253;SDS011;57649;42.968;1.608;2022-08-11T10:38:52;5.43;;;2.60;;
70253;SDS011;57649;42.968;1.608;2022-08-11T10:41:19;5.25;;;2.70;;
70253;SDS011;57649;42.968;1.608;2022-08-11T10:44:05;4.00;;;2.70;;
70253;SDS011;57649;42.968;1.608;2022-08-11T10:46:33;8.13;;;3.30;;
70253;SDS011;57649;42.968;1.608;2022-08-11T10:49:18;5.32;;;2.90;;
70253;SDS011;57649;42.968;1.608;2022-08-11T10:51:45;5.90;;;2.80;;
70253;SDS011;57649;42.968;1.608;2022-08-11T10:54:30;3.63;;;2.70;;
70253;SDS011;57649;42.968;1.608;2022-08-11T10:57:16;5.47;;;2.90;;
70253;SDS011;57649;42.968;1.608;2022-08-11T11:00:02;5.57;;;3.15;;
70253;SDS011;57649;42.968;1.608;2022-08-11T11:02:30;6.55;;;2.65;;
70253;SDS011;57649;42.968;1.608;2022-08-11T11:08:00;3.13;;;2.70;;
70253;SDS011;57649;42.968;1.608;2022-08-11T11:10:54;5.82;;;2.97;;
70253;SDS011;57649;42.968;1.608;2022-08-11T11:13:21;5.30;;;3.05;;
70253;SDS011;57649;42.968;1.608;2022-08-11T11:16:07;5.35;;;2.90;;
70253;SDS011;57649;42.968;1.608;2022-08-11T11:18:53;5.72;;;3.30;;
70253;SDS011;57649;42.968;1.608;2022-08-11T11:21:20;4.93;;;3.63;;
70253;SDS011;57649;42.968;1.608;2022-08-11T11:26:54;4.57;;;3.13;;
70253;SDS011;57649;42.968;1.608;2022-08-11T11:29:43;4.03;;;2.80;;
70253;SDS011;57649;42.968;1.608;2022-08-11T11:37:50;4.72;;;3.45;;
70253;SDS011;57649;42.968;1.608;2022-08-11T11:40:17;6.65;;;3.10;;
70253;SDS011;57649;42.968;1.608;2022-08-11T11:42:45;5.65;;;3.03;;
70253;SDS011;57649;42.968;1.608;2022-08-11T11:45:16;4.65;;;2.65;;
70253;SDS011;57649;42.968;1.608;2022-08-11T11:47:43;8.93;;;3.08;;
70253;SDS011;57649;42.968;1.608;2022-08-11T11:50:09;7.95;;;3.28;;
70253;SDS011;57649;42.968;1.608;2022-08-11T11:52:37;5.53;;;3.17;;
70253;SDS011;57649;42.968;1.608;2022-08-11T11:55:04;4.50;;;3.10;;
70253;SDS011;57649;42.968;1.608;2022-08-11T11:57:31;4.63;;;3.15;;
70253;SDS011;57649;42.968;1.608;2022-08-11T12:00:15;5.32;;;3.45;;
70253;SDS011;57649;42.968;1.608;2022-08-11T12:03:02;4.25;;;3.33;;
70253;SDS011;57649;42.968;1.608;2022-08-11T12:05:32;3.88;;;3.00;;
70253;SDS011;57649;42.968;1.608;2022-08-11T12:08:00;6.63;;;3.47;;
70253;SDS011;57649;42.968;1.608;2022-08-11T12:10:40;6.35;;;2.70;;
70253;SDS011;57649;42.968;1.608;2022-08-11T12:13:09;3.95;;;3.00;;
70253;SDS011;57649;42.968;1.608;2022-08-11T12:15:54;7.78;;;3.47;;
70253;SDS011;57649;42.968;1.608;2022-08-11T12:18:21;6.28;;;3.75;;
70253;SDS011;57649;42.968;1.608;2022-08-11T12:20:47;3.10;;;2.80;;
70253;SDS011;57649;42.968;1.608;2022-08-11T12:23:13;5.38;;;3.13;;
70253;SDS011;57649;42.968;1.608;2022-08-11T12:25:58;3.60;;;3.08;;
70253;SDS011;57649;42.968;1.608;2022-08-11T12:28:43;5.45;;;3.05;;
70253;SDS011;57649;42.968;1.608;2022-08-11T12:31:09;7.35;;;3.40;;
70253;SDS011;57649;42.968;1.608;2022-08-11T12:33:38;8.18;;;3.20;;
70253;SDS011;57649;42.968;1.608;2022-08-11T12:36:07;5.45;;;3.13;;
70253;SDS011;57649;42.968;1.608;2022-08-11T12:38:40;4.63;;;3.10;;
70253;SDS011;57649;42.968;1.608;2022-08-11T12:41:11;4.78;;;3.03;;
70253;SDS011;57649;42.968;1.608;2022-08-11T12:43:55;7.15;;;3.15;;
70253;SDS011;57649;42.968;1.608;2022-08-11T12:46:43;8.38;;;2.70;;
70253;SDS011;57649;42.968;1.608;2022-08-11T12:49:16;5.95;;;3.00;;
70253;SDS011;57649;42.968;1.608;2022-08-11T12:52:07;7.50;;;2.70;;
70253;SDS011;57649;42.968;1.608;2022-08-11T12:54:43;5.90;;;3.03;;
70253;SDS011;57649;42.968;1.608;2022-08-11T12:57:24;4.05;;;3.20;;
70253;SDS011;57649;42.968;1.608;2022-08-11T13:00:11;5.72;;;2.83;;
70253;SDS011;57649;42.968;1.608;2022-08-11T13:02:58;6.13;;;3.03;;
70253;SDS011;57649;42.968;1.608;2022-08-11T13:05:43;6.95;;;3.08;;
70253;SDS011;57649;42.968;1.608;2022-08-11T13:08:11;7.65;;;3.30;;
70253;SDS011;57649;42.968;1.608;2022-08-11T13:10:41;4.88;;;2.78;;
70253;SDS011;57649;42.968;1.608;2022-08-11T13:13:27;5.28;;;2.95;;
70253;SDS011;57649;42.968;1.608;2022-08-11T13:15:54;5.70;;;2.70;;
70253;SDS011;57649;42.968;1.608;2022-08-11T13:18:20;7.43;;;3.65;;
70253;SDS011;57649;42.968;1.608;2022-08-11T13:20:47;4.55;;;3.20;;
70253;SDS011;57649;42.968;1.608;2022-08-11T13:23:14;2.97;;;2.63;;
70253;SDS011;57649;42.968;1.608;2022-08-11T13:25:41;7.13;;;3.10;;
70253;SDS011;57649;42.968;1.608;2022-08-11T13:28:08;3.60;;;2.90;;
70253;SDS011;57649;42.968;1.608;2022-08-11T13:30:35;6.00;;;2.97;;
70253;SDS011;57649;42.968;1.608;2022-08-11T13:33:19;7.50;;;3.47;;
70253;SDS011;57649;42.968;1.608;2022-08-11T13:35:45;7.75;;;3.65;;
70253;SDS011;57649;42.968;1.608;2022-08-11T13:38:13;3.78;;;3.22;;
70253;SDS011;57649;42.968;1.608;2022-08-11T13:40:40;5.15;;;2.97;;
70253;SDS011;57649;42.968;1.608;2022-08-11T13:43:06;3.45;;;3.08;;
70253;SDS011;57649;42.968;1.608;2022-08-11T13:45:33;4.78;;;2.83;;
70253;SDS011;57649;42.968;1.608;2022-08-11T13:48:00;5.95;;;3.72;;
70253;SDS011;57649;42.968;1.608;2022-08-11T13:50:30;3.50;;;3.17;;
70253;SDS011;57649;42.968;1.608;2022-08-11T13:53:22;4.18;;;3.28;;
70253;SDS011;57649;42.968;1.608;2022-08-11T13:55:50;8.95;;;3.45;;
70253;SDS011;57649;42.968;1.608;2022-08-11T13:58:16;5.18;;;3.80;;
70253;SDS011;57649;42.968;1.608;2022-08-11T14:00:45;5.65;;;3.40;;
70253;SDS011;57649;42.968;1.608;2022-08-11T14:03:13;4.88;;;3.25;;
70253;SDS011;57649;42.968;1.608;2022-08-11T14:05:41;5.93;;;3.50;;
70253;SDS011;57649;42.968;1.608;2022-08-11T14:08:14;6.20;;;3.85;;
70253;SDS011;57649;42.968;1.608;2022-08-11T14:10:42;8.30;;;4.07;;
70253;SDS011;57649;42.968;1.608;2022-08-11T14:13:12;4.97;;;3.88;;
70253;SDS011;57649;42.968;1.608;2022-08-11T14:16:00;7.55;;;4.22;;
70253;SDS011;57649;42.968;1.608;2022-08-11T14:18:29;3.80;;;3.47;;
70253;SDS011;57649;42.968;1.608;2022-08-11T14:20:56;5.55;;;4.53;;
70253;SDS011;57649;42.968;1.608;2022-08-11T14:23:48;5.22;;;4.25;;
70253;SDS011;57649;42.968;1.608;2022-08-11T14:26:19;7.18;;;4.05;;
70253;SDS011;57649;42.968;1.608;2022-08-11T14:28:56;6.32;;;4.60;;
70253;SDS011;57649;42.968;1.608;2022-08-11T14:31:34;5.80;;;3.90;;
70253;SDS011;57649;42.968;1.608;2022-08-11T14:34:04;5.80;;;4.15;;
70253;SDS011;57649;42.968;1.608;2022-08-11T14:36:53;9.90;;;4.47;;
70253;SDS011;57649;42.968;1.608;2022-08-11T14:39:20;6.75;;;4.47;;
70253;SDS011;57649;42.968;1.608;2022-08-11T14:41:49;6.38;;;4.53;;
70253;SDS011;57649;42.968;1.608;2022-08-11T14:44:37;5.03;;;4.53;;
70253;SDS011;57649;42.968;1.608;2022-08-11T14:47:27;8.00;;;4.78;;
70253;SDS011;57649;42.968;1.608;2022-08-11T14:49:57;5.13;;;4.55;;
70253;SDS011;57649;42.968;1.608;2022-08-11T14:52:24;5.50;;;4.03;;
70253;SDS011;57649;42.968;1.608;2022-08-11T14:54:51;6.28;;;4.10;;
70253;SDS011;57649;42.968;1.608;2022-08-11T14:57:37;11.27;;;4.60;;
70253;SDS011;57649;42.968;1.608;2022-08-11T15:00:05;5.82;;;4.25;;
70253;SDS011;57649;42.968;1.608;2022-08-11T15:02:33;6.22;;;4.00;;
70253;SDS011;57649;42.968;1.608;2022-08-11T15:05:21;5.00;;;4.40;;
70253;SDS011;57649;42.968;1.608;2022-08-11T15:07:47;10.27;;;5.22;;
70253;SDS011;57649;42.968;1.608;2022-08-11T15:10:15;4.55;;;4.15;;
70253;SDS011;57649;42.968;1.608;2022-08-11T15:12:42;6.68;;;4.60;;
70253;SDS011;57649;42.968;1.608;2022-08-11T15:15:10;7.43;;;4.50;;
70253;SDS011;57649;42.968;1.608;2022-08-11T15:17:56;5.93;;;4.50;;
70253;SDS011;57649;42.968;1.608;2022-08-11T15:20:24;6.47;;;4.53;;
70253;SDS011;57649;42.968;1.608;2022-08-11T15:23:09;5.20;;;4.70;;
70253;SDS011;57649;42.968;1.608;2022-08-11T15:25:55;7.25;;;4.07;;
70253;SDS011;57649;42.968;1.608;2022-08-11T15:28:23;6.00;;;4.65;;
70253;SDS011;57649;42.968;1.608;2022-08-11T15:31:09;5.55;;;4.55;;
70253;SDS011;57649;42.968;1.608;2022-08-11T15:33:59;10.30;;;4.68;;
70253;SDS011;57649;42.968;1.608;2022-08-11T15:36:47;6.82;;;4.90;;
70253;SDS011;57649;42.968;1.608;2022-08-11T15:39:37;4.90;;;4.40;;
70253;SDS011;57649;42.968;1.608;2022-08-11T15:42:29;5.00;;;4.50;;
70253;SDS011;57649;42.968;1.608;2022-08-11T15:45:15;6.93;;;4.25;;
70253;SDS011;57649;42.968;1.608;2022-08-11T15:48:06;8.70;;;4.68;;
70253;SDS011;57649;42.968;1.608;2022-08-11T15:50:35;5.40;;;4.47;;
70253;SDS011;57649;42.968;1.608;2022-08-11T15:53:26;5.45;;;4.68;;
70253;SDS011;57649;42.968;1.608;2022-08-11T15:55:59;8.27;;;4.97;;
70253;SDS011;57649;42.968;1.608;2022-08-11T15:58:28;6.17;;;4.40;;
70253;SDS011;57649;42.968;1.608;2022-08-11T16:01:16;5.50;;;3.88;;
70253;SDS011;57649;42.968;1.608;2022-08-11T16:04:05;6.03;;;4.10;;
70253;SDS011;57649;42.968;1.608;2022-08-11T16:06:49;7.03;;;4.32;;
70253;SDS011;57649;42.968;1.608;2022-08-11T16:12:11;5.07;;;4.35;;
70253;SDS011;57649;42.968;1.608;2022-08-11T16:14:40;4.80;;;4.00;;
70253;SDS011;57649;42.968;1.608;2022-08-11T16:17:29;6.03;;;4.60;;
70253;SDS011;57649;42.968;1.608;2022-08-11T16:19:57;5.60;;;4.40;;
70253;SDS011;57649;42.968;1.608;2022-08-11T16:22:31;4.40;;;4.00;;
70253;SDS011;57649;42.968;1.608;2022-08-11T16:25:10;5.75;;;4.00;;
70253;SDS011;57649;42.968;1.608;2022-08-11T16:27:44;5.30;;;4.15;;
70253;SDS011;57649;42.968;1.608;2022-08-11T16:30:11;8.98;;;4.47;;
70253;SDS011;57649;42.968;1.608;2022-08-11T16:32:39;6.25;;;3.80;;
70253;SDS011;57649;42.968;1.608;2022-08-11T16:35:09;5.85;;;4.10;;
70253;SDS011;57649;42.968;1.608;2022-08-11T16:38:00;8.77;;;5.72;;
70253;SDS011;57649;42.968;1.608;2022-08-11T16:40:48;7.43;;;4.30;;
70253;SDS011;57649;42.968;1.608;2022-08-11T16:43:16;4.45;;;3.83;;
70253;SDS011;57649;42.968;1.608;2022-08-11T16:46:03;7.90;;;4.30;;
70253;SDS011;57649;42.968;1.608;2022-08-11T16:48:50;5.70;;;3.88;;
70253;SDS011;57649;42.968;1.608;2022-08-11T16:51:19;5.75;;;3.92;;
70253;SDS011;57649;42.968;1.608;2022-08-11T16:53:46;6.45;;;4.22;;
70253;SDS011;57649;42.968;1.608;2022-08-11T16:56:24;4.88;;;4.38;;
70253;SDS011;57649;42.968;1.608;2022-08-11T16:58:59;4.80;;;4.18;;
70253;SDS011;57649;42.968;1.608;2022-08-11T17:01:39;6.72;;;4.13;;
70253;SDS011;57649;42.968;1.608;2022-08-11T17:04:08;4.63;;;3.92;;
70253;SDS011;57649;42.968;1.608;2022-08-11T17:06:56;7.40;;;4.75;;
70253;SDS011;57649;42.968;1.608;2022-08-11T17:10:02;6.60;;;5.30;;
70253;SDS011;57649;42.968;1.608;2022-08-11T17:12:49;5.65;;;5.13;;
70253;SDS011;57649;42.968;1.608;2022-08-11T17:15:36;6.10;;;5.20;;
70253;SDS011;57649;42.968;1.608;2022-08-11T17:18:24;6.85;;;5.40;;
70253;SDS011;57649;42.968;1.608;2022-08-11T17:21:08;6.75;;;5.03;;
70253;SDS011;57649;42.968;1.608;2022-08-11T17:23:47;6.05;;;5.32;;
70253;SDS011;57649;42.968;1.608;2022-08-11T17:26:20;7.43;;;4.80;;
70253;SDS011;57649;42.968;1.608;2022-08-11T17:28:49;5.75;;;3.78;;
70253;SDS011;57649;42.968;1.608;2022-08-11T17:31:20;11.38;;;4.75;;
70253;SDS011;57649;42.968;1.608;2022-08-11T17:34:07;7.18;;;3.22;;
70253;SDS011;57649;42.968;1.608;2022-08-11T17:36:52;6.80;;;3.45;;
70253;SDS011;57649;42.968;1.608;2022-08-11T17:39:20;6.90;;;3.17;;
70253;SDS011;57649;42.968;1.608;2022-08-11T17:41:49;8.50;;;2.92;;
70253;SDS011;57649;42.968;1.608;2022-08-11T17:44:35;5.80;;;3.00;;
70253;SDS011;57649;42.968;1.608;2022-08-11T17:47:21;9.57;;;3.13;;
70253;SDS011;57649;42.968;1.608;2022-08-11T17:50:07;6.22;;;2.70;;
70253;SDS011;57649;42.968;1.608;2022-08-11T17:52:34;3.15;;;2.60;;
70253;SDS011;57649;42.968;1.608;2022-08-11T17:55:20;6.50;;;2.70;;
70253;SDS011;57649;42.968;1.608;2022-08-11T17:58:05;7.55;;;2.50;;
70253;SDS011;57649;42.968;1.608;2022-08-11T18:00:50;5.80;;;2.35;;
70253;SDS011;57649;42.968;1.608;2022-08-11T18:03:18;7.47;;;2.53;;
70253;SDS011;57649;42.968;1.608;2022-08-11T18:05:57;4.90;;;2.38;;
70253;SDS011;57649;42.968;1.608;2022-08-11T18:08:25;6.40;;;2.80;;
70253;SDS011;57649;42.968;1.608;2022-08-11T18:11:13;5.18;;;2.53;;
70253;SDS011;57649;42.968;1.608;2022-08-11T18:14:00;6.40;;;2.45;;
70253;SDS011;57649;42.968;1.608;2022-08-11T18:16:46;2.78;;;2.30;;
70253;SDS011;57649;42.968;1.608;2022-08-11T18:19:31;3.65;;;2.40;;
70253;SDS011;57649;42.968;1.608;2022-08-11T18:22:20;6.78;;;2.88;;
70253;SDS011;57649;42.968;1.608;2022-08-11T18:25:11;6.70;;;2.97;;
70253;SDS011;57649;42.968;1.608;2022-08-11T18:27:58;7.63;;;2.47;;
70253;SDS011;57649;42.968;1.608;2022-08-11T18:30:45;5.03;;;2.70;;
70253;SDS011;57649;42.968;1.608;2022-08-11T18:33:42;4.33;;;2.70;;
70253;SDS011;57649;42.968;1.608;2022-08-11T18:36:37;9.55;;;3.03;;
70253;SDS011;57649;42.968;1.608;2022-08-11T18:39:23;7.38;;;2.95;;
70253;SDS011;57649;42.968;1.608;2022-08-11T18:42:13;4.75;;;2.50;;
70253;SDS011;57649;42.968;1.608;2022-08-11T18:45:00;6.35;;;2.40;;
70253;SDS011;57649;42.968;1.608;2022-08-11T18:47:49;5.93;;;2.65;;
70253;SDS011;57649;42.968;1.608;2022-08-11T18:50:37;8.50;;;2.63;;
70253;SDS011;57649;42.968;1.608;2022-08-11T18:53:24;11.13;;;3.30;;
70253;SDS011;57649;42.968;1.608;2022-08-11T18:56:11;9.23;;;2.58;;
70253;SDS011;57649;42.968;1.608;2022-08-11T18:58:56;8.57;;;2.47;;
70253;SDS011;57649;42.968;1.608;2022-08-11T19:01:43;6.88;;;3.00;;
70253;SDS011;57649;42.968;1.608;2022-08-11T19:04:28;7.68;;;2.70;;
70253;SDS011;57649;42.968;1.608;2022-08-11T19:07:13;6.22;;;2.60;;
70253;SDS011;57649;42.968;1.608;2022-08-11T19:09:59;6.35;;;2.63;;
70253;SDS011;57649;42.968;1.608;2022-08-11T19:12:46;7.47;;;2.40;;
70253;SDS011;57649;42.968;1.608;2022-08-11T19:15:31;5.65;;;2.53;;
70253;SDS011;57649;42.968;1.608;2022-08-11T19:18:20;5.53;;;2.65;;
70253;SDS011;57649;42.968;1.608;2022-08-11T19:21:07;6.90;;;2.67;;
70253;SDS011;57649;42.968;1.608;2022-08-11T19:23:53;8.60;;;2.67;;
70253;SDS011;57649;42.968;1.608;2022-08-11T19:26:39;6.63;;;2.55;;